sensor_id;sensor_type;location;lat;lon;timestamp;P1;durP1;ratioP1;P2;durP2;ratioP2
13753;SDS011;6948;51.216;6.778;2023-03-04T00:01:29;14.83;;;7.87;;
13753;SDS011;6948;51.216;6.778;2023-03-04T00:03:55;11.97;;;7.20;;
13753;SDS011;6948;51.216;6.778;2023-03-04T00:06:21;11.67;;;7.10;;
13753;SDS011;6948;51.216;6.778;2023-03-04T00:08:47;9.10;;;6.47;;
13753;SDS011;6948;51.216;6.778;2023-03-04T00:11:13;11.03;;;5.90;;
13753;SDS011;6948;51.216;6.778;2023-03-04T00:13:39;8.80;;;5.63;;
13753;SDS011;6948;51.216;6.778;2023-03-04T00:16:05;14.20;;;6.23;;
13753;SDS011;6948;51.216;6.778;2023-03-04T00:18:31;12.83;;;5.20;;
13753;SDS011;6948;51.216;6.778;2023-03-04T00:20:57;10.23;;;5.07;;
13753;SDS011;6948;51.216;6.778;2023-03-04T00:23:23;10.37;;;4.80;;
13753;SDS011;6948;51.216;6.778;2023-03-04T00:25:49;13.13;;;5.07;;
13753;SDS011;6948;51.216;6.778;2023-03-04T00:28:15;11.60;;;5.27;;
13753;SDS011;6948;51.216;6.778;2023-03-04T00:30:41;15.90;;;6.60;;
13753;SDS011;6948;51.216;6.778;2023-03-04T00:33:07;11.83;;;5.10;;
13753;SDS011;6948;51.216;6.778;2023-03-04T00:35:33;12.50;;;5.17;;
13753;SDS011;6948;51.216;6.778;2023-03-04T00:37:59;10.30;;;4.90;;
13753;SDS011;6948;51.216;6.778;2023-03-04T00:40:25;10.23;;;4.60;;
13753;SDS011;6948;51.216;6.778;2023-03-04T00:42:51;12.53;;;4.30;;
13753;SDS011;6948;51.216;6.778;2023-03-04T00:45:17;13.33;;;5.00;;
13753;SDS011;6948;51.216;6.778;2023-03-04T00:47:43;12.63;;;4.00;;
13753;SDS011;6948;51.216;6.778;2023-03-04T00:50:09;12.50;;;4.63;;
13753;SDS011;6948;51.216;6.778;2023-03-04T00:52:35;11.83;;;4.60;;
13753;SDS011;6948;51.216;6.778;2023-03-04T00:55:02;12.57;;;4.13;;
13753;SDS011;6948;51.216;6.778;2023-03-04T00:57:28;15.03;;;4.23;;
13753;SDS011;6948;51.216;6.778;2023-03-04T00:59:54;11.47;;;4.23;;
13753;SDS011;6948;51.216;6.778;2023-03-04T01:02:20;15.37;;;4.10;;
13753;SDS011;6948;51.216;6.778;2023-03-04T01:04:46;14.07;;;4.63;;
13753;SDS011;6948;51.216;6.778;2023-03-04T01:07:12;12.47;;;4.10;;
13753;SDS011;6948;51.216;6.778;2023-03-04T01:09:38;12.93;;;4.20;;
13753;SDS011;6948;51.216;6.778;2023-03-04T01:12:04;13.63;;;4.37;;
13753;SDS011;6948;51.216;6.778;2023-03-04T01:14:30;10.87;;;4.27;;
13753;SDS011;6948;51.216;6.778;2023-03-04T01:16:56;13.67;;;4.00;;
13753;SDS011;6948;51.216;6.778;2023-03-04T01:19:22;12.97;;;4.00;;
13753;SDS011;6948;51.216;6.778;2023-03-04T01:21:48;15.53;;;4.50;;
13753;SDS011;6948;51.216;6.778;2023-03-04T01:24:14;11.20;;;4.30;;
13753;SDS011;6948;51.216;6.778;2023-03-04T01:26:40;13.30;;;4.20;;
13753;SDS011;6948;51.216;6.778;2023-03-04T01:29:06;12.13;;;4.60;;
13753;SDS011;6948;51.216;6.778;2023-03-04T01:31:32;12.27;;;4.43;;
13753;SDS011;6948;51.216;6.778;2023-03-04T01:33:58;14.97;;;4.80;;
13753;SDS011;6948;51.216;6.778;2023-03-04T01:36:24;11.63;;;4.57;;
13753;SDS011;6948;51.216;6.778;2023-03-04T01:38:50;12.23;;;3.87;;
13753;SDS011;6948;51.216;6.778;2023-03-04T01:41:17;12.77;;;4.47;;
13753;SDS011;6948;51.216;6.778;2023-03-04T01:43:44;17.37;;;4.60;;
13753;SDS011;6948;51.216;6.778;2023-03-04T01:46:10;14.03;;;4.40;;
13753;SDS011;6948;51.216;6.778;2023-03-04T01:48:39;15.83;;;4.10;;
13753;SDS011;6948;51.216;6.778;2023-03-04T01:51:08;19.60;;;4.73;;
13753;SDS011;6948;51.216;6.778;2023-03-04T01:53:35;15.10;;;3.93;;
13753;SDS011;6948;51.216;6.778;2023-03-04T01:56:10;13.93;;;4.07;;
13753;SDS011;6948;51.216;6.778;2023-03-04T01:58:36;12.17;;;3.70;;
13753;SDS011;6948;51.216;6.778;2023-03-04T02:01:02;16.07;;;3.93;;
13753;SDS011;6948;51.216;6.778;2023-03-04T02:03:28;12.00;;;4.13;;
13753;SDS011;6948;51.216;6.778;2023-03-04T02:05:54;17.07;;;4.70;;
13753;SDS011;6948;51.216;6.778;2023-03-04T02:08:21;15.17;;;4.30;;
13753;SDS011;6948;51.216;6.778;2023-03-04T02:10:48;11.23;;;4.17;;
13753;SDS011;6948;51.216;6.778;2023-03-04T02:13:15;13.63;;;4.30;;
13753;SDS011;6948;51.216;6.778;2023-03-04T02:15:42;14.30;;;3.97;;
13753;SDS011;6948;51.216;6.778;2023-03-04T02:18:13;16.53;;;4.87;;
13753;SDS011;6948;51.216;6.778;2023-03-04T02:28:39;16.87;;;4.10;;
13753;SDS011;6948;51.216;6.778;2023-03-04T02:31:06;10.77;;;4.10;;
13753;SDS011;6948;51.216;6.778;2023-03-04T02:33:32;11.67;;;3.83;;
13753;SDS011;6948;51.216;6.778;2023-03-04T02:35:58;14.23;;;3.90;;
13753;SDS011;6948;51.216;6.778;2023-03-04T02:38:24;18.17;;;4.87;;
13753;SDS011;6948;51.216;6.778;2023-03-04T02:40:50;18.27;;;4.60;;
13753;SDS011;6948;51.216;6.778;2023-03-04T02:43:18;19.80;;;4.53;;
13753;SDS011;6948;51.216;6.778;2023-03-04T02:45:45;15.40;;;4.23;;
13753;SDS011;6948;51.216;6.778;2023-03-04T02:48:12;16.50;;;4.20;;
13753;SDS011;6948;51.216;6.778;2023-03-04T02:50:41;18.90;;;4.53;;
13753;SDS011;6948;51.216;6.778;2023-03-04T02:53:07;17.13;;;4.00;;
13753;SDS011;6948;51.216;6.778;2023-03-04T02:55:34;15.40;;;4.60;;
13753;SDS011;6948;51.216;6.778;2023-03-04T02:58:00;20.43;;;4.20;;
13753;SDS011;6948;51.216;6.778;2023-03-04T03:00:26;19.93;;;4.80;;
13753;SDS011;6948;51.216;6.778;2023-03-04T03:02:53;16.80;;;4.33;;
13753;SDS011;6948;51.216;6.778;2023-03-04T03:05:21;18.17;;;4.90;;
13753;SDS011;6948;51.216;6.778;2023-03-04T03:07:47;17.97;;;4.70;;
13753;SDS011;6948;51.216;6.778;2023-03-04T03:10:13;20.27;;;4.67;;
13753;SDS011;6948;51.216;6.778;2023-03-04T03:12:39;19.27;;;4.20;;
13753;SDS011;6948;51.216;6.778;2023-03-04T03:15:05;18.03;;;4.90;;
13753;SDS011;6948;51.216;6.778;2023-03-04T03:17:32;17.33;;;4.63;;
13753;SDS011;6948;51.216;6.778;2023-03-04T03:19:58;17.93;;;6.10;;
13753;SDS011;6948;51.216;6.778;2023-03-04T03:22:24;22.63;;;5.37;;
13753;SDS011;6948;51.216;6.778;2023-03-04T03:24:50;24.97;;;5.10;;
13753;SDS011;6948;51.216;6.778;2023-03-04T03:27:16;14.13;;;4.57;;
13753;SDS011;6948;51.216;6.778;2023-03-04T03:29:42;16.40;;;4.37;;
13753;SDS011;6948;51.216;6.778;2023-03-04T03:32:08;18.80;;;4.90;;
13753;SDS011;6948;51.216;6.778;2023-03-04T03:34:34;21.33;;;5.07;;
13753;SDS011;6948;51.216;6.778;2023-03-04T03:37:00;15.67;;;5.00;;
13753;SDS011;6948;51.216;6.778;2023-03-04T03:39:26;26.03;;;9.63;;
13753;SDS011;6948;51.216;6.778;2023-03-04T03:41:52;25.67;;;10.13;;
13753;SDS011;6948;51.216;6.778;2023-03-04T03:44:18;24.03;;;9.50;;
13753;SDS011;6948;51.216;6.778;2023-03-04T03:46:44;21.73;;;6.40;;
13753;SDS011;6948;51.216;6.778;2023-03-04T03:49:11;19.03;;;6.27;;
13753;SDS011;6948;51.216;6.778;2023-03-04T03:51:37;21.37;;;6.07;;
13753;SDS011;6948;51.216;6.778;2023-03-04T03:54:03;17.93;;;5.27;;
13753;SDS011;6948;51.216;6.778;2023-03-04T03:56:29;21.80;;;5.40;;
13753;SDS011;6948;51.216;6.778;2023-03-04T03:58:55;17.40;;;5.00;;
13753;SDS011;6948;51.216;6.778;2023-03-04T04:01:21;18.03;;;5.13;;
13753;SDS011;6948;51.216;6.778;2023-03-04T04:03:47;18.30;;;5.33;;
13753;SDS011;6948;51.216;6.778;2023-03-04T04:06:13;15.10;;;5.50;;
13753;SDS011;6948;51.216;6.778;2023-03-04T04:08:40;19.03;;;5.60;;
13753;SDS011;6948;51.216;6.778;2023-03-04T04:11:08;15.60;;;5.53;;
13753;SDS011;6948;51.216;6.778;2023-03-04T04:13:34;19.37;;;5.30;;
13753;SDS011;6948;51.216;6.778;2023-03-04T04:16:00;17.60;;;5.17;;
13753;SDS011;6948;51.216;6.778;2023-03-04T04:18:26;20.10;;;5.33;;
13753;SDS011;6948;51.216;6.778;2023-03-04T04:20:52;17.87;;;5.50;;
13753;SDS011;6948;51.216;6.778;2023-03-04T04:23:18;16.33;;;4.67;;
13753;SDS011;6948;51.216;6.778;2023-03-04T04:25:44;16.77;;;5.60;;
13753;SDS011;6948;51.216;6.778;2023-03-04T04:28:10;20.03;;;5.40;;
13753;SDS011;6948;51.216;6.778;2023-03-04T04:30:36;15.20;;;4.70;;
13753;SDS011;6948;51.216;6.778;2023-03-04T04:33:03;21.17;;;5.37;;
13753;SDS011;6948;51.216;6.778;2023-03-04T04:35:29;15.17;;;5.50;;
13753;SDS011;6948;51.216;6.778;2023-03-04T04:37:56;13.20;;;4.80;;
13753;SDS011;6948;51.216;6.778;2023-03-04T04:40:22;15.53;;;4.97;;
13753;SDS011;6948;51.216;6.778;2023-03-04T04:42:48;18.63;;;5.37;;
13753;SDS011;6948;51.216;6.778;2023-03-04T04:45:14;17.67;;;4.70;;
13753;SDS011;6948;51.216;6.778;2023-03-04T04:47:40;18.43;;;4.80;;
13753;SDS011;6948;51.216;6.778;2023-03-04T04:50:06;13.80;;;4.23;;
13753;SDS011;6948;51.216;6.778;2023-03-04T04:52:32;16.47;;;5.00;;
13753;SDS011;6948;51.216;6.778;2023-03-04T04:54:58;17.60;;;4.77;;
13753;SDS011;6948;51.216;6.778;2023-03-04T04:57:24;16.33;;;4.57;;
13753;SDS011;6948;51.216;6.778;2023-03-04T04:59:50;15.30;;;4.87;;
13753;SDS011;6948;51.216;6.778;2023-03-04T05:02:16;17.90;;;5.90;;
13753;SDS011;6948;51.216;6.778;2023-03-04T05:04:42;12.37;;;4.67;;
13753;SDS011;6948;51.216;6.778;2023-03-04T05:07:08;11.33;;;3.87;;
13753;SDS011;6948;51.216;6.778;2023-03-04T05:09:34;17.50;;;4.67;;
13753;SDS011;6948;51.216;6.778;2023-03-04T05:12:00;16.43;;;4.17;;
13753;SDS011;6948;51.216;6.778;2023-03-04T05:14:26;19.30;;;4.10;;
13753;SDS011;6948;51.216;6.778;2023-03-04T05:16:53;14.03;;;3.60;;
13753;SDS011;6948;51.216;6.778;2023-03-04T05:19:19;14.27;;;4.20;;
13753;SDS011;6948;51.216;6.778;2023-03-04T05:21:45;12.70;;;3.80;;
13753;SDS011;6948;51.216;6.778;2023-03-04T05:24:11;17.33;;;4.13;;
13753;SDS011;6948;51.216;6.778;2023-03-04T05:26:37;15.43;;;4.07;;
13753;SDS011;6948;51.216;6.778;2023-03-04T05:29:03;15.33;;;3.80;;
13753;SDS011;6948;51.216;6.778;2023-03-04T05:31:29;15.53;;;4.10;;
13753;SDS011;6948;51.216;6.778;2023-03-04T05:33:55;12.90;;;3.90;;
13753;SDS011;6948;51.216;6.778;2023-03-04T05:36:21;14.63;;;3.60;;
13753;SDS011;6948;51.216;6.778;2023-03-04T05:38:47;14.27;;;3.90;;
13753;SDS011;6948;51.216;6.778;2023-03-04T05:41:13;17.87;;;5.87;;
13753;SDS011;6948;51.216;6.778;2023-03-04T05:43:42;17.40;;;5.23;;
13753;SDS011;6948;51.216;6.778;2023-03-04T05:46:12;11.60;;;4.70;;
13753;SDS011;6948;51.216;6.778;2023-03-04T05:48:39;14.23;;;5.00;;
13753;SDS011;6948;51.216;6.778;2023-03-04T05:51:05;15.53;;;5.00;;
13753;SDS011;6948;51.216;6.778;2023-03-04T05:53:31;12.90;;;4.13;;
13753;SDS011;6948;51.216;6.778;2023-03-04T05:55:57;15.40;;;4.17;;
13753;SDS011;6948;51.216;6.778;2023-03-04T05:58:24;12.93;;;4.00;;
13753;SDS011;6948;51.216;6.778;2023-03-04T06:00:50;11.63;;;3.63;;
13753;SDS011;6948;51.216;6.778;2023-03-04T06:03:17;13.67;;;3.53;;
13753;SDS011;6948;51.216;6.778;2023-03-04T06:05:43;12.70;;;3.57;;
13753;SDS011;6948;51.216;6.778;2023-03-04T06:08:09;12.10;;;3.57;;
13753;SDS011;6948;51.216;6.778;2023-03-04T06:10:36;13.83;;;3.60;;
13753;SDS011;6948;51.216;6.778;2023-03-04T06:13:03;13.97;;;3.40;;
13753;SDS011;6948;51.216;6.778;2023-03-04T06:15:29;17.47;;;3.40;;
13753;SDS011;6948;51.216;6.778;2023-03-04T06:17:55;11.80;;;3.73;;
13753;SDS011;6948;51.216;6.778;2023-03-04T06:20:21;11.97;;;3.70;;
13753;SDS011;6948;51.216;6.778;2023-03-04T06:22:47;12.83;;;3.47;;
13753;SDS011;6948;51.216;6.778;2023-03-04T06:25:13;15.83;;;3.30;;
13753;SDS011;6948;51.216;6.778;2023-03-04T06:27:39;13.03;;;3.40;;
13753;SDS011;6948;51.216;6.778;2023-03-04T06:30:05;11.43;;;3.50;;
13753;SDS011;6948;51.216;6.778;2023-03-04T06:32:32;19.53;;;4.00;;
13753;SDS011;6948;51.216;6.778;2023-03-04T06:34:58;10.47;;;3.50;;
13753;SDS011;6948;51.216;6.778;2023-03-04T06:37:24;13.40;;;3.50;;
13753;SDS011;6948;51.216;6.778;2023-03-04T06:39:50;13.90;;;3.77;;
13753;SDS011;6948;51.216;6.778;2023-03-04T06:42:16;13.87;;;3.37;;
13753;SDS011;6948;51.216;6.778;2023-03-04T06:44:42;12.87;;;3.10;;
13753;SDS011;6948;51.216;6.778;2023-03-04T06:47:08;13.40;;;3.40;;
13753;SDS011;6948;51.216;6.778;2023-03-04T06:49:34;11.57;;;3.53;;
13753;SDS011;6948;51.216;6.778;2023-03-04T06:52:00;16.17;;;3.40;;
13753;SDS011;6948;51.216;6.778;2023-03-04T06:54:26;14.83;;;3.57;;
13753;SDS011;6948;51.216;6.778;2023-03-04T06:56:52;11.60;;;3.53;;
13753;SDS011;6948;51.216;6.778;2023-03-04T06:59:18;9.40;;;3.27;;
13753;SDS011;6948;51.216;6.778;2023-03-04T07:01:44;11.90;;;3.53;;
13753;SDS011;6948;51.216;6.778;2023-03-04T07:04:11;9.23;;;3.20;;
13753;SDS011;6948;51.216;6.778;2023-03-04T07:06:38;10.10;;;2.87;;
13753;SDS011;6948;51.216;6.778;2023-03-04T07:09:04;10.70;;;3.03;;
13753;SDS011;6948;51.216;6.778;2023-03-04T07:11:30;14.97;;;3.63;;
13753;SDS011;6948;51.216;6.778;2023-03-04T07:13:56;10.57;;;3.07;;
13753;SDS011;6948;51.216;6.778;2023-03-04T07:16:22;12.73;;;3.23;;
13753;SDS011;6948;51.216;6.778;2023-03-04T07:18:49;9.10;;;3.17;;
13753;SDS011;6948;51.216;6.778;2023-03-04T07:21:15;11.77;;;3.07;;
13753;SDS011;6948;51.216;6.778;2023-03-04T07:23:41;13.03;;;3.07;;
13753;SDS011;6948;51.216;6.778;2023-03-04T07:26:07;12.40;;;2.93;;
13753;SDS011;6948;51.216;6.778;2023-03-04T07:28:34;11.00;;;3.03;;
13753;SDS011;6948;51.216;6.778;2023-03-04T07:31:34;16.17;;;3.10;;
13753;SDS011;6948;51.216;6.778;2023-03-04T07:33:46;11.13;;;3.20;;
13753;SDS011;6948;51.216;6.778;2023-03-04T07:36:12;14.17;;;3.43;;
13753;SDS011;6948;51.216;6.778;2023-03-04T07:38:47;11.97;;;3.20;;
13753;SDS011;6948;51.216;6.778;2023-03-04T07:41:13;12.87;;;3.60;;
13753;SDS011;6948;51.216;6.778;2023-03-04T07:43:39;13.73;;;2.97;;
13753;SDS011;6948;51.216;6.778;2023-03-04T07:46:06;10.40;;;2.70;;
13753;SDS011;6948;51.216;6.778;2023-03-04T07:48:32;9.40;;;2.60;;
13753;SDS011;6948;51.216;6.778;2023-03-04T07:51:02;10.20;;;3.07;;
13753;SDS011;6948;51.216;6.778;2023-03-04T07:53:29;12.53;;;3.00;;
13753;SDS011;6948;51.216;6.778;2023-03-04T07:55:55;12.63;;;2.70;;
13753;SDS011;6948;51.216;6.778;2023-03-04T07:58:21;17.90;;;3.10;;
13753;SDS011;6948;51.216;6.778;2023-03-04T08:00:47;12.73;;;3.37;;
13753;SDS011;6948;51.216;6.778;2023-03-04T08:03:13;11.00;;;3.10;;
13753;SDS011;6948;51.216;6.778;2023-03-04T08:05:39;15.13;;;2.77;;
13753;SDS011;6948;51.216;6.778;2023-03-04T08:08:05;10.10;;;2.77;;
13753;SDS011;6948;51.216;6.778;2023-03-04T08:10:31;15.47;;;3.43;;
13753;SDS011;6948;51.216;6.778;2023-03-04T08:12:57;12.13;;;3.10;;
13753;SDS011;6948;51.216;6.778;2023-03-04T08:15:23;13.17;;;2.93;;
13753;SDS011;6948;51.216;6.778;2023-03-04T08:17:51;9.60;;;2.70;;
13753;SDS011;6948;51.216;6.778;2023-03-04T08:20:17;12.83;;;2.77;;
13753;SDS011;6948;51.216;6.778;2023-03-04T08:22:46;8.13;;;2.37;;
13753;SDS011;6948;51.216;6.778;2023-03-04T08:25:12;7.40;;;2.43;;
13753;SDS011;6948;51.216;6.778;2023-03-04T08:27:38;10.10;;;2.97;;
13753;SDS011;6948;51.216;6.778;2023-03-04T08:30:04;10.57;;;3.20;;
13753;SDS011;6948;51.216;6.778;2023-03-04T08:32:30;11.03;;;3.27;;
13753;SDS011;6948;51.216;6.778;2023-03-04T08:34:56;11.97;;;4.17;;
13753;SDS011;6948;51.216;6.778;2023-03-04T08:37:22;13.03;;;2.93;;
13753;SDS011;6948;51.216;6.778;2023-03-04T08:39:48;10.07;;;2.70;;
13753;SDS011;6948;51.216;6.778;2023-03-04T08:42:14;9.73;;;2.67;;
13753;SDS011;6948;51.216;6.778;2023-03-04T08:44:40;12.00;;;2.93;;
13753;SDS011;6948;51.216;6.778;2023-03-04T08:47:06;7.57;;;2.30;;
13753;SDS011;6948;51.216;6.778;2023-03-04T08:49:34;5.27;;;1.97;;
13753;SDS011;6948;51.216;6.778;2023-03-04T08:52:00;7.90;;;2.30;;
13753;SDS011;6948;51.216;6.778;2023-03-04T08:54:26;8.77;;;2.60;;
13753;SDS011;6948;51.216;6.778;2023-03-04T08:56:52;11.63;;;2.47;;
13753;SDS011;6948;51.216;6.778;2023-03-04T08:59:18;11.73;;;3.13;;
13753;SDS011;6948;51.216;6.778;2023-03-04T09:01:44;10.07;;;2.40;;
13753;SDS011;6948;51.216;6.778;2023-03-04T09:04:10;8.03;;;2.57;;
13753;SDS011;6948;51.216;6.778;2023-03-04T09:06:36;6.37;;;2.20;;
13753;SDS011;6948;51.216;6.778;2023-03-04T09:09:02;10.57;;;2.47;;
13753;SDS011;6948;51.216;6.778;2023-03-04T09:11:29;7.90;;;2.23;;
13753;SDS011;6948;51.216;6.778;2023-03-04T09:13:55;9.17;;;2.77;;
13753;SDS011;6948;51.216;6.778;2023-03-04T09:16:21;10.10;;;2.17;;
13753;SDS011;6948;51.216;6.778;2023-03-04T09:18:47;6.27;;;2.13;;
13753;SDS011;6948;51.216;6.778;2023-03-04T09:21:14;5.43;;;2.20;;
13753;SDS011;6948;51.216;6.778;2023-03-04T09:23:41;10.00;;;2.33;;
13753;SDS011;6948;51.216;6.778;2023-03-04T09:26:16;9.07;;;2.60;;
13753;SDS011;6948;51.216;6.778;2023-03-04T09:28:43;8.50;;;2.50;;
13753;SDS011;6948;51.216;6.778;2023-03-04T09:31:10;10.47;;;2.77;;
13753;SDS011;6948;51.216;6.778;2023-03-04T09:33:37;9.77;;;2.57;;
13753;SDS011;6948;51.216;6.778;2023-03-04T09:36:08;7.83;;;2.30;;
13753;SDS011;6948;51.216;6.778;2023-03-04T09:38:34;14.40;;;2.77;;
13753;SDS011;6948;51.216;6.778;2023-03-04T09:41:03;7.00;;;2.23;;
13753;SDS011;6948;51.216;6.778;2023-03-04T09:43:32;6.90;;;2.10;;
13753;SDS011;6948;51.216;6.778;2023-03-04T09:46:03;7.03;;;2.60;;
13753;SDS011;6948;51.216;6.778;2023-03-04T09:48:34;9.83;;;2.40;;
13753;SDS011;6948;51.216;6.778;2023-03-04T09:51:05;4.93;;;1.80;;
13753;SDS011;6948;51.216;6.778;2023-03-04T09:53:39;6.53;;;2.03;;
13753;SDS011;6948;51.216;6.778;2023-03-04T09:56:08;4.90;;;1.80;;
13753;SDS011;6948;51.216;6.778;2023-03-04T09:58:45;7.63;;;2.03;;
13753;SDS011;6948;51.216;6.778;2023-03-04T10:01:22;4.80;;;1.67;;
13753;SDS011;6948;51.216;6.778;2023-03-04T10:03:53;8.30;;;2.43;;
13753;SDS011;6948;51.216;6.778;2023-03-04T10:06:20;10.90;;;2.43;;
13753;SDS011;6948;51.216;6.778;2023-03-04T10:09:03;9.80;;;2.10;;
13753;SDS011;6948;51.216;6.778;2023-03-04T10:11:33;10.03;;;2.50;;
13753;SDS011;6948;51.216;6.778;2023-03-04T10:16:41;6.47;;;2.00;;
13753;SDS011;6948;51.216;6.778;2023-03-04T10:21:50;8.97;;;2.57;;
13753;SDS011;6948;51.216;6.778;2023-03-04T10:24:17;10.20;;;2.90;;
13753;SDS011;6948;51.216;6.778;2023-03-04T10:26:45;6.70;;;2.20;;
13753;SDS011;6948;51.216;6.778;2023-03-04T10:29:14;5.63;;;1.67;;
13753;SDS011;6948;51.216;6.778;2023-03-04T10:31:40;8.53;;;2.07;;
13753;SDS011;6948;51.216;6.778;2023-03-04T10:34:08;5.67;;;2.13;;
13753;SDS011;6948;51.216;6.778;2023-03-04T10:36:38;6.97;;;2.17;;
13753;SDS011;6948;51.216;6.778;2023-03-04T10:39:10;7.00;;;2.33;;
13753;SDS011;6948;51.216;6.778;2023-03-04T10:41:40;7.77;;;2.77;;
13753;SDS011;6948;51.216;6.778;2023-03-04T10:46:46;5.67;;;2.30;;
13753;SDS011;6948;51.216;6.778;2023-03-04T10:49:13;8.87;;;2.10;;
13753;SDS011;6948;51.216;6.778;2023-03-04T10:51:41;6.80;;;1.90;;
13753;SDS011;6948;51.216;6.778;2023-03-04T10:54:08;5.67;;;2.10;;
13753;SDS011;6948;51.216;6.778;2023-03-04T10:59:31;4.20;;;1.80;;
13753;SDS011;6948;51.216;6.778;2023-03-04T11:02:01;4.23;;;1.77;;
13753;SDS011;6948;51.216;6.778;2023-03-04T11:04:31;3.87;;;1.60;;
13753;SDS011;6948;51.216;6.778;2023-03-04T11:06:58;6.97;;;2.00;;
13753;SDS011;6948;51.216;6.778;2023-03-04T11:09:26;6.97;;;2.10;;
13753;SDS011;6948;51.216;6.778;2023-03-04T11:11:54;4.90;;;2.00;;
13753;SDS011;6948;51.216;6.778;2023-03-04T11:14:25;8.67;;;2.23;;
13753;SDS011;6948;51.216;6.778;2023-03-04T11:16:57;8.70;;;1.97;;
13753;SDS011;6948;51.216;6.778;2023-03-04T11:19:27;6.80;;;1.97;;
13753;SDS011;6948;51.216;6.778;2023-03-04T11:21:54;5.50;;;2.00;;
13753;SDS011;6948;51.216;6.778;2023-03-04T11:24:23;7.10;;;1.97;;
13753;SDS011;6948;51.216;6.778;2023-03-04T11:26:53;6.50;;;2.20;;
13753;SDS011;6948;51.216;6.778;2023-03-04T11:29:21;6.30;;;2.30;;
13753;SDS011;6948;51.216;6.778;2023-03-04T11:32:06;4.20;;;1.70;;
13753;SDS011;6948;51.216;6.778;2023-03-04T11:34:43;7.03;;;2.07;;
13753;SDS011;6948;51.216;6.778;2023-03-04T11:37:17;7.20;;;1.83;;
13753;SDS011;6948;51.216;6.778;2023-03-04T11:39:56;7.63;;;1.90;;
13753;SDS011;6948;51.216;6.778;2023-03-04T11:45:16;6.73;;;2.10;;
13753;SDS011;6948;51.216;6.778;2023-03-04T11:59:00;4.53;;;1.80;;
13753;SDS011;6948;51.216;6.778;2023-03-04T12:01:34;4.93;;;1.70;;
13753;SDS011;6948;51.216;6.778;2023-03-04T12:04:06;5.80;;;1.70;;
13753;SDS011;6948;51.216;6.778;2023-03-04T12:06:41;4.13;;;1.53;;
13753;SDS011;6948;51.216;6.778;2023-03-04T12:11:57;2.97;;;1.70;;
13753;SDS011;6948;51.216;6.778;2023-03-04T12:14:28;8.07;;;2.33;;
13753;SDS011;6948;51.216;6.778;2023-03-04T12:17:00;6.57;;;2.30;;
13753;SDS011;6948;51.216;6.778;2023-03-04T12:19:34;3.73;;;1.80;;
13753;SDS011;6948;51.216;6.778;2023-03-04T12:22:23;4.53;;;1.63;;
13753;SDS011;6948;51.216;6.778;2023-03-04T12:25:08;5.20;;;1.70;;
13753;SDS011;6948;51.216;6.778;2023-03-04T12:27:39;6.80;;;2.00;;
13753;SDS011;6948;51.216;6.778;2023-03-04T12:32:58;4.60;;;1.80;;
13753;SDS011;6948;51.216;6.778;2023-03-04T12:38:15;4.73;;;1.80;;
13753;SDS011;6948;51.216;6.778;2023-03-04T12:40:46;4.73;;;1.97;;
13753;SDS011;6948;51.216;6.778;2023-03-04T12:46:09;2.70;;;1.53;;
13753;SDS011;6948;51.216;6.778;2023-03-04T12:48:39;2.90;;;1.60;;
13753;SDS011;6948;51.216;6.778;2023-03-04T12:51:11;2.60;;;1.60;;
13753;SDS011;6948;51.216;6.778;2023-03-04T12:56:21;3.73;;;1.50;;
13753;SDS011;6948;51.216;6.778;2023-03-04T12:58:48;2.73;;;1.30;;
13753;SDS011;6948;51.216;6.778;2023-03-04T13:01:17;3.03;;;1.60;;
13753;SDS011;6948;51.216;6.778;2023-03-04T13:09:07;4.67;;;1.87;;
13753;SDS011;6948;51.216;6.778;2023-03-04T13:11:42;3.30;;;1.53;;
13753;SDS011;6948;51.216;6.778;2023-03-04T13:29:57;6.80;;;1.70;;
13753;SDS011;6948;51.216;6.778;2023-03-04T13:32:39;4.23;;;1.77;;
13753;SDS011;6948;51.216;6.778;2023-03-04T13:37:55;6.63;;;2.23;;
13753;SDS011;6948;51.216;6.778;2023-03-04T13:40:23;3.33;;;1.90;;
13753;SDS011;6948;51.216;6.778;2023-03-04T13:43:12;3.33;;;1.57;;
13753;SDS011;6948;51.216;6.778;2023-03-04T13:45:42;4.83;;;1.60;;
13753;SDS011;6948;51.216;6.778;2023-03-04T13:48:22;2.20;;;1.60;;
13753;SDS011;6948;51.216;6.778;2023-03-04T13:50:48;3.00;;;1.67;;
13753;SDS011;6948;51.216;6.778;2023-03-04T13:59:08;3.30;;;1.87;;
13753;SDS011;6948;51.216;6.778;2023-03-04T14:04:16;5.10;;;2.00;;
13753;SDS011;6948;51.216;6.778;2023-03-04T14:06:43;4.50;;;1.90;;
13753;SDS011;6948;51.216;6.778;2023-03-04T14:09:13;5.20;;;1.80;;
13753;SDS011;6948;51.216;6.778;2023-03-04T14:11:40;3.90;;;2.70;;
13753;SDS011;6948;51.216;6.778;2023-03-04T14:14:09;2.20;;;1.77;;
13753;SDS011;6948;51.216;6.778;2023-03-04T14:16:37;3.73;;;2.20;;
13753;SDS011;6948;51.216;6.778;2023-03-04T14:19:05;3.73;;;2.13;;
13753;SDS011;6948;51.216;6.778;2023-03-04T14:21:32;3.23;;;2.20;;
13753;SDS011;6948;51.216;6.778;2023-03-04T14:26:41;3.50;;;2.10;;
13753;SDS011;6948;51.216;6.778;2023-03-04T14:31:54;4.03;;;1.80;;
13753;SDS011;6948;51.216;6.778;2023-03-04T14:34:23;2.57;;;1.80;;
13753;SDS011;6948;51.216;6.778;2023-03-04T14:36:50;3.23;;;1.90;;
13753;SDS011;6948;51.216;6.778;2023-03-04T14:39:17;3.37;;;1.90;;
13753;SDS011;6948;51.216;6.778;2023-03-04T14:41:43;3.23;;;2.00;;
13753;SDS011;6948;51.216;6.778;2023-03-04T14:46:52;2.50;;;1.80;;
13753;SDS011;6948;51.216;6.778;2023-03-04T14:49:20;4.43;;;1.90;;
13753;SDS011;6948;51.216;6.778;2023-03-04T14:51:48;4.77;;;2.03;;
13753;SDS011;6948;51.216;6.778;2023-03-04T14:54:32;2.80;;;1.80;;
13753;SDS011;6948;51.216;6.778;2023-03-04T14:56:59;4.03;;;1.70;;
13753;SDS011;6948;51.216;6.778;2023-03-04T14:59:33;2.60;;;2.00;;
13753;SDS011;6948;51.216;6.778;2023-03-04T15:02:15;5.47;;;1.97;;
13753;SDS011;6948;51.216;6.778;2023-03-04T15:04:42;4.60;;;2.33;;
13753;SDS011;6948;51.216;6.778;2023-03-04T15:07:14;2.73;;;2.00;;
13753;SDS011;6948;51.216;6.778;2023-03-04T15:09:40;3.20;;;2.13;;
13753;SDS011;6948;51.216;6.778;2023-03-04T15:12:07;2.60;;;2.10;;
13753;SDS011;6948;51.216;6.778;2023-03-04T15:14:51;4.43;;;3.43;;
13753;SDS011;6948;51.216;6.778;2023-03-04T15:17:23;3.43;;;2.10;;
13753;SDS011;6948;51.216;6.778;2023-03-04T15:25:20;4.20;;;2.13;;
13753;SDS011;6948;51.216;6.778;2023-03-04T15:27:47;2.83;;;1.97;;
13753;SDS011;6948;51.216;6.778;2023-03-04T15:30:16;3.77;;;2.17;;
13753;SDS011;6948;51.216;6.778;2023-03-04T15:32:42;3.77;;;2.07;;
13753;SDS011;6948;51.216;6.778;2023-03-04T15:35:11;4.93;;;2.27;;
13753;SDS011;6948;51.216;6.778;2023-03-04T15:37:37;3.90;;;2.23;;
13753;SDS011;6948;51.216;6.778;2023-03-04T15:40:04;4.03;;;2.40;;
13753;SDS011;6948;51.216;6.778;2023-03-04T15:42:32;3.13;;;2.10;;
13753;SDS011;6948;51.216;6.778;2023-03-04T15:44:58;2.80;;;2.17;;
13753;SDS011;6948;51.216;6.778;2023-03-04T15:47:24;5.37;;;2.30;;
13753;SDS011;6948;51.216;6.778;2023-03-04T15:49:50;3.47;;;2.30;;
13753;SDS011;6948;51.216;6.778;2023-03-04T15:52:19;2.50;;;2.20;;
13753;SDS011;6948;51.216;6.778;2023-03-04T15:54:46;7.00;;;2.40;;
13753;SDS011;6948;51.216;6.778;2023-03-04T15:57:16;5.90;;;2.87;;
13753;SDS011;6948;51.216;6.778;2023-03-04T15:59:43;4.53;;;2.87;;
13753;SDS011;6948;51.216;6.778;2023-03-04T16:02:13;3.07;;;2.77;;
13753;SDS011;6948;51.216;6.778;2023-03-04T16:04:40;5.30;;;3.17;;
13753;SDS011;6948;51.216;6.778;2023-03-04T16:07:09;3.90;;;2.47;;
13753;SDS011;6948;51.216;6.778;2023-03-04T16:09:40;6.60;;;3.00;;
13753;SDS011;6948;51.216;6.778;2023-03-04T16:12:08;3.20;;;2.70;;
13753;SDS011;6948;51.216;6.778;2023-03-04T16:14:34;6.50;;;2.83;;
13753;SDS011;6948;51.216;6.778;2023-03-04T16:17:03;4.97;;;2.67;;
13753;SDS011;6948;51.216;6.778;2023-03-04T16:19:29;6.70;;;2.80;;
13753;SDS011;6948;51.216;6.778;2023-03-04T16:21:55;7.37;;;3.20;;
13753;SDS011;6948;51.216;6.778;2023-03-04T16:24:24;7.60;;;3.70;;
13753;SDS011;6948;51.216;6.778;2023-03-04T16:26:51;10.20;;;5.10;;
13753;SDS011;6948;51.216;6.778;2023-03-04T16:29:17;9.00;;;4.70;;